Time;durP1;ratioP1;P1;durP2;ratioP2;P2;SDS_P1;SDS_P2;PMS_P1;PMS_P2;Temp;Humidity;BMP_temperature;BMP_pressure;BME280_temperature;BME280_humidity;BME280_pressure;Samples;Min_cycle;Max_cycle;Signal;HPM_P1;HPM_P2
2022/07/31 00:02:06;;;;;;;;;;;;;;;-144.99;100.00;61100.13;5105182;28;19988;-74
2022/07/31 00:04:32;;;;;;;;;;;;;;;-144.99;100.00;61100.13;5105272;28;20435;-74
2022/07/31 00:07:00;;;;;;;;;;;;;;;-144.99;100.00;61100.13;5106513;28;20110;-75
2022/07/31 00:09:28;;;;;;;;;;;;;;;-144.99;100.00;61100.13;5108967;28;19927;-75
2022/07/31 00:11:54;;;;;;;;;;;;;;;-144.99;100.00;61100.13;5107944;28;20383;-76
2022/07/31 00:14:21;;;;;;;;;;;;;;;-144.99;100.00;61100.13;5106676;28;19932;-75
2022/07/31 00:16:47;;;;;;;;;;;;;;;-144.99;100.00;61100.13;4752770;28;9999684;-75
2022/07/31 00:19:14;;;;;;;;;;;;;;;-144.99;100.00;61100.13;5106501;28;19928;-75
2022/07/31 00:21:40;;;;;;;;;;;;;;;-144.99;100.00;61100.13;5104497;28;19932;-74
2022/07/31 00:24:08;;;;;;;;;;;;;;;-144.99;100.00;61100.13;5106095;28;19934;-75
2022/07/31 00:26:34;;;;;;;;;;;;;;;-144.99;100.00;61100.13;5104254;28;20019;-74
2022/07/31 00:29:01;;;;;;;;;;;;;;;-144.99;100.00;61100.13;5106630;28;20014;-76
2022/07/31 00:31:27;;;;;;;;;;;;;;;-144.99;100.00;61100.13;5104632;28;19923;-74
2022/07/31 00:33:53;;;;;;;;;;;;;;;-144.99;100.00;61100.13;5099528;28;20103;-73
2022/07/31 00:36:20;;;;;;;;;;;;;;;-144.99;100.00;61100.13;5106213;28;20018;-74
2022/07/31 00:38:46;;;;;;;;;;;;;;;-144.99;100.00;61100.13;5113493;28;19983;-75
2022/07/31 00:41:14;;;;;;;;;;;;;;;-144.99;100.00;61100.13;5123061;28;19986;-74
2022/07/31 00:43:40;;;;;;;;;;;;;;;-144.99;100.00;61100.13;5119436;28;19983;-74
2022/07/31 00:46:07;;;;;;;;;;;;;;;-144.99;100.00;61100.13;5120219;28;19924;-75
2022/07/31 00:48:33;;;;;;;;;;;;;;;-144.99;100.00;61100.13;5118729;28;20436;-74
2022/07/31 00:51:00;;;;;;;;;;;;;;;-144.99;100.00;61100.13;5117615;28;20019;-74
2022/07/31 00:53:26;;;;;;;;;;;;;;;-144.99;100.00;61100.13;5120848;28;20022;-74
2022/07/31 00:55:52;;;;;;;;;;;;;;;-144.99;100.00;61100.13;5121845;28;19981;-73
2022/07/31 00:58:20;;;;;;;;;;;;;;;-144.99;100.00;61100.13;5117975;28;19970;-75
2022/07/31 01:00:47;;;;;;;;;;;;;;;-144.99;100.00;61100.13;5121743;28;19927;-71
2022/07/31 01:03:13;;;;;;;;;;;;;;;-144.99;100.00;61100.13;5122511;28;19977;-73
2022/07/31 01:05:40;;;;;;;;;;;;;;;-144.99;100.00;61100.13;5121156;28;20027;-77
2022/07/31 01:08:07;;;;;;;;;;;;;;;-144.99;100.00;61100.13;5118175;28;19924;-77
2022/07/31 01:10:38;;;;;;;;;;;;;;;-144.99;100.00;61100.13;5109215;28;19946;-76
2022/07/31 01:13:08;;;;;;;;;;;;;;;-144.99;100.00;61100.13;5106780;28;19928;-76
2022/07/31 01:15:37;;;;;;;;;;;;;;;-144.99;100.00;61100.13;5095545;28;19935;-77
2022/07/31 01:18:04;;;;;;;;;;;;;;;-144.99;100.00;61100.13;5108818;28;19927;-77
2022/07/31 01:20:32;;;;;;;;;;;;;;;-144.99;100.00;61100.13;5107489;28;20018;-76
2022/07/31 01:23:13;;;;;;;;;;;;;;;-144.99;100.00;61100.13;5109350;28;19930;-77
2022/07/31 01:25:44;;;;;;;;;;;;;;;-144.99;100.00;61100.13;5107693;28;20216;-77
2022/07/31 01:28:18;;;;;;;;;;;;;;;-144.99;100.00;61100.13;5107224;28;20014;-76
2022/07/31 01:30:48;;;;;;;;;;;;;;;-144.99;100.00;61100.13;5109063;28;20250;-76
2022/07/31 01:33:18;;;;;;;;;;;;;;;-144.99;100.00;61100.13;5100176;28;19923;-76
2022/07/31 01:35:47;;;;;;;;;;;;;;;-144.99;100.00;61100.13;5107764;28;20186;-76
2022/07/31 01:38:15;;;;;;;;;;;;;;;-144.99;100.00;61100.13;5109492;28;20295;-75
2022/07/31 01:40:43;;;;;;;;;;;;;;;-144.99;100.00;61100.13;5109457;28;19930;-76
2022/07/31 01:43:12;;;;;;;;;;;;;;;-144.99;100.00;61100.13;5108501;28;19950;-75
2022/07/31 01:45:41;;;;;;;;;;;;;;;-144.99;100.00;61100.13;5107940;28;19928;-75
2022/07/31 01:48:11;;;;;;;;;;;;;;;-144.99;100.00;61100.13;5108656;28;20354;-74
2022/07/31 01:50:38;;;;;;;;;;;;;;;-144.99;100.00;61100.13;5106381;28;20006;-75
2022/07/31 01:53:05;;;;;;;;;;;;;;;-144.99;100.00;61100.13;5102682;28;19930;-75
2022/07/31 01:55:32;;;;;;;;;;;;;;;-144.99;100.00;61100.13;5108989;28;20446;-74
2022/07/31 01:57:59;;;;;;;;;;;;;;;-144.99;100.00;61100.13;5109426;28;19935;-76
2022/07/31 02:00:25;;;;;;;;;;;;;;;-144.99;100.00;61100.13;5108763;28;19958;-75
2022/07/31 02:02:52;;;;;;;;;;;;;;;-144.99;100.00;61100.13;5108010;28;19923;-75
2022/07/31 02:05:21;;;;;;;;;;;;;;;-144.99;100.00;61100.13;5106781;28;19924;-75
2022/07/31 02:07:49;;;;;;;;;;;;;;;-144.99;100.00;61100.13;5109230;28;20442;-77
2022/07/31 02:10:16;;;;;;;;;;;;;;;-144.99;100.00;61100.13;5109296;28;19947;-75
2022/07/31 02:12:43;;;;;;;;;;;;;;;-144.99;100.00;61100.13;5109298;28;19927;-77
2022/07/31 02:15:11;;;;;;;;;;;;;;;-144.99;100.00;61100.13;5108769;28;19928;-74
2022/07/31 02:17:38;;;;;;;;;;;;;;;-144.99;100.00;61100.13;5109356;28;20007;-77
2022/07/31 02:20:06;;;;;;;;;;;;;;;-144.99;100.00;61100.13;5107392;28;20034;-77
2022/07/31 02:22:34;;;;;;;;;;;;;;;-144.99;100.00;61100.13;5111936;28;19931;-77
2022/07/31 02:25:01;;;;;;;;;;;;;;;-144.99;100.00;61100.13;5112772;28;19991;-76
2022/07/31 02:27:28;;;;;;;;;;;;;;;-144.99;100.00;61100.13;5112080;28;20314;-74
2022/07/31 02:29:57;;;;;;;;;;;;;;;-144.99;100.00;61100.13;5108233;28;20061;-77
2022/07/31 02:32:25;;;;;;;;;;;;;;;-144.99;100.00;61100.13;5105133;28;20375;-75
2022/07/31 02:34:52;;;;;;;;;;;;;;;-144.99;100.00;61100.13;5110806;28;19923;-73
2022/07/31 02:37:19;;;;;;;;;;;;;;;-144.99;100.00;61100.13;5112303;28;20031;-75
2022/07/31 02:39:47;;;;;;;;;;;;;;;-144.99;100.00;61100.13;5112881;28;19923;-76
2022/07/31 02:42:15;;;;;;;;;;;;;;;-144.99;100.00;61100.13;5112734;28;19924;-74
2022/07/31 02:44:41;;;;;;;;;;;;;;;-144.99;100.00;61100.13;5113454;28;19923;-74
2022/07/31 02:47:08;;;;;;;;;;;;;;;-144.99;100.00;61100.13;5112762;28;19931;-72
2022/07/31 02:49:35;;;;;;;;;;;;;;;-144.99;100.00;61100.13;5113018;28;20010;-74
2022/07/31 02:52:03;;;;;;;;;;;;;;;-144.99;100.00;61100.13;5111410;28;20318;-75
2022/07/31 02:54:29;;;;;;;;;;;;;;;-144.99;100.00;61100.13;5112793;28;19927;-77
2022/07/31 02:56:58;;;;;;;;;;;;;;;-144.99;100.00;61100.13;5112660;28;19927;-76
2022/07/31 02:59:24;;;;;;;;;;;;;;;-144.99;100.00;61100.13;5110240;28;20193;-77
2022/07/31 03:01:51;;;;;;;;;;;;;;;-144.99;100.00;61100.13;5111359;28;20364;-76
2022/07/31 03:04:18;;;;;;;;;;;;;;;-144.99;100.00;61100.13;5112360;28;20014;-76
2022/07/31 03:06:44;;;;;;;;;;;;;;;-144.99;100.00;61100.13;5110963;28;20001;-75
2022/07/31 03:09:10;;;;;;;;;;;;;;;-144.99;100.00;61100.13;5111829;28;19957;-73
2022/07/31 03:11:37;;;;;;;;;;;;;;;-144.99;100.00;61100.13;5111094;28;19945;-74
2022/07/31 03:14:06;;;;;;;;;;;;;;;-144.99;100.00;61100.13;5109687;28;20022;-74
2022/07/31 03:16:34;;;;;;;;;;;;;;;-144.99;100.00;61100.13;5111145;28;19984;-73
2022/07/31 03:19:01;;;;;;;;;;;;;;;-144.99;100.00;61100.13;5111269;28;20390;-73
2022/07/31 03:21:30;;;;;;;;;;;;;;;-144.99;100.00;61100.13;5122403;22;19931;-78
2022/07/31 03:23:57;;;;;;;;;;;;;;;-144.99;100.00;61100.13;5084930;28;19935;-78
2022/07/31 03:26:23;;;;;;;;;;;;;;;-144.99;100.00;61100.13;5086799;28;19935;-78
2022/07/31 03:28:50;;;;;;;;;;;;;;;-144.99;100.00;61100.13;5088954;28;19928;-78
2022/07/31 03:31:18;;;;;;;;;;;;;;;-144.99;100.00;61100.13;5077334;28;19946;-77
2022/07/31 03:33:44;;;;;;;;;;;;;;;-144.99;100.00;61100.13;5068667;28;20601;-79
2022/07/31 03:36:11;;;;;;;;;;;;;;;-144.99;100.00;61100.13;5069088;28;19947;-79
2022/07/31 03:38:37;;;;;;;;;;;;;;;-144.99;100.00;61100.13;5080669;28;19928;-77
2022/07/31 03:41:04;;;;;;;;;;;;;;;-144.99;100.00;61100.13;5071804;28;19925;-81
2022/07/31 03:43:31;;;;;;;;;;;;;;;-144.99;100.00;61100.13;5066645;28;19959;-80
2022/07/31 03:45:58;;;;;;;;;;;;;;;-144.99;100.00;61100.13;5071333;28;20016;-80
2022/07/31 03:48:26;;;;;;;;;;;;;;;-144.99;100.00;61100.13;5085570;28;20343;-81
2022/07/31 03:50:52;;;;;;;;;;;;;;;-144.99;100.00;61100.13;5080328;28;19923;-84
2022/07/31 03:53:19;;;;;;;;;;;;;;;-144.99;100.00;61100.13;5084708;28;19976;-83
2022/07/31 03:55:46;;;;;;;;;;;;;;;-144.99;100.00;61100.13;5100416;28;19976;-84
2022/07/31 03:58:12;;;;;;;;;;;;;;;-144.99;100.00;61100.13;5100893;28;19991;-81
2022/07/31 04:00:39;;;;;;;;;;;;;;;-144.99;100.00;61100.13;5093391;28;19913;-81
2022/07/31 04:03:08;;;;;;;;;;;;;;;-144.99;100.00;61100.13;5080845;28;19933;-80
2022/07/31 04:05:36;;;;;;;;;;;;;;;-144.99;100.00;61100.13;5092141;28;19968;-81
2022/07/31 04:08:02;;;;;;;;;;;;;;;-144.99;100.00;61100.13;5100929;28;19999;-81
2022/07/31 04:10:29;;;;;;;;;;;;;;;-144.99;100.00;61100.13;5097730;28;19923;-82
2022/07/31 04:12:55;;;;;;;;;;;;;;;-144.99;100.00;61100.13;5100080;28;19935;-82
2022/07/31 04:15:21;;;;;;;;;;;;;;;-144.99;100.00;61100.13;5095787;28;19936;-79
2022/07/31 04:17:48;;;;;;;;;;;;;;;-144.99;100.00;61100.13;5104881;28;19923;-84
2022/07/31 04:20:14;;;;;;;;;;;;;;;-144.99;100.00;61100.13;5094041;28;19960;-84
2022/07/31 04:22:42;;;;;;;;;;;;;;;-144.99;100.00;61100.13;5100313;28;19928;-82
2022/07/31 04:25:09;;;;;;;;;;;;;;;-144.99;100.00;61100.13;5083786;28;19944;-78
2022/07/31 04:27:35;;;;;;;;;;;;;;;-144.99;100.00;61100.13;5082229;28;20407;-76
2022/07/31 04:30:02;;;;;;;;;;;;;;;-144.99;100.00;61100.13;5076219;28;19931;-78
2022/07/31 04:32:28;;;;;;;;;;;;;;;-144.99;100.00;61100.13;5075382;28;19925;-79
2022/07/31 04:34:55;;;;;;;;;;;;;;;-144.99;100.00;61100.13;5071229;28;19931;-76
2022/07/31 04:37:21;;;;;;;;;;;;;;;-144.99;100.00;61100.13;5076340;28;19925;-78
2022/07/31 04:39:49;;;;;;;;;;;;;;;-144.99;100.00;61100.13;5068069;28;19925;-79
2022/07/31 04:42:15;;;;;;;;;;;;;;;-144.99;100.00;61100.13;5088624;28;19924;-79
2022/07/31 04:44:43;;;;;;;;;;;;;;;-144.99;100.00;61100.13;5066558;28;19943;-79
2022/07/31 04:47:10;;;;;;;;;;;;;;;-144.99;100.00;61100.13;5069577;28;19928;-78
2022/07/31 04:49:36;;;;;;;;;;;;;;;-144.99;100.00;61100.13;5077456;28;19924;-79
2022/07/31 04:52:03;;;;;;;;;;;;;;;-144.99;100.00;61100.13;5074146;28;20027;-78
2022/07/31 04:54:30;;;;;;;;;;;;;;;-144.99;100.00;61100.13;5073330;28;20170;-76
2022/07/31 04:56:57;;;;;;;;;;;;;;;-144.99;100.00;61100.13;5075522;28;19929;-77
2022/07/31 04:59:24;;;;;;;;;;;;;;;-144.99;100.00;61100.13;5075486;28;19995;-78
2022/07/31 05:01:50;;;;;;;;;;;;;;;-144.99;100.00;61100.13;5073187;28;19935;-79
2022/07/31 05:04:16;;;;;;;;;;;;;;;-144.99;100.00;61100.13;5074136;28;20287;-77
2022/07/31 05:06:43;;;;;;;;;;;;;;;-144.99;100.00;61100.13;5065063;28;19946;-78
2022/07/31 05:09:11;;;;;;;;;;;;;;;-144.99;100.00;61100.13;5067282;28;19967;-78
2022/07/31 05:11:38;;;;;;;;;;;;;;;-144.99;100.00;61100.13;5064224;28;20357;-76
2022/07/31 05:14:07;;;;;;;;;;;;;;;-144.99;100.00;61100.13;5070081;28;20159;-78
2022/07/31 05:16:34;;;;;;;;;;;;;;;-144.99;100.00;61100.13;5075915;28;19935;-78
2022/07/31 05:19:01;;;;;;;;;;;;;;;-144.99;100.00;61100.13;5067759;28;19944;-78
2022/07/31 05:21:29;;;;;;;;;;;;;;;-144.99;100.00;61100.13;5069604;28;19928;-78
2022/07/31 05:23:56;;;;;;;;;;;;;;;-144.99;100.00;61100.13;5067983;28;19924;-79
2022/07/31 05:26:23;;;;;;;;;;;;;;;-144.99;100.00;61100.13;5068076;28;20414;-77
2022/07/31 05:28:49;;;;;;;;;;;;;;;-144.99;100.00;61100.13;5065625;28;19924;-78
2022/07/31 05:31:18;;;;;;;;;;;;;;;-144.99;100.00;61100.13;5069910;28;19929;-77
2022/07/31 05:33:45;;;;;;;;;;;;;;;-144.99;100.00;61100.13;5079982;28;19924;-79
2022/07/31 05:36:12;;;;;;;;;;;;;;;-144.99;100.00;61100.13;5079491;28;20000;-79
2022/07/31 05:38:38;;;;;;;;;;;;;;;-144.99;100.00;61100.13;5059660;28;19925;-79
2022/07/31 05:41:05;;;;;;;;;;;;;;;-144.99;100.00;61100.13;5073789;28;19925;-79
2022/07/31 05:43:31;;;;;;;;;;;;;;;-144.99;100.00;61100.13;5067760;28;19928;-80
2022/07/31 05:45:57;;;;;;;;;;;;;;;-144.99;100.00;61100.13;5063682;28;19925;-80
2022/07/31 05:48:25;;;;;;;;;;;;;;;-144.99;100.00;61100.13;5079702;28;19928;-78
2022/07/31 05:50:52;;;;;;;;;;;;;;;-144.99;100.00;61100.13;5062912;28;19935;-78
2022/07/31 05:53:19;;;;;;;;;;;;;;;-144.99;100.00;61100.13;5061171;28;19928;-79
2022/07/31 05:55:46;;;;;;;;;;;;;;;-144.99;100.00;61100.13;5067606;28;19931;-74
2022/07/31 05:58:13;;;;;;;;;;;;;;;-144.99;100.00;61100.13;5081916;28;19924;-79
2022/07/31 06:00:40;;;;;;;;;;;;;;;-144.99;100.00;61100.13;5066962;28;20277;-78
2022/07/31 06:03:06;;;;;;;;;;;;;;;-144.99;100.00;61100.13;5073192;28;20031;-80
2022/07/31 06:05:34;;;;;;;;;;;;;;;-144.99;100.00;61100.13;5071032;28;19974;-77
2022/07/31 06:08:01;;;;;;;;;;;;;;;-144.99;100.00;61100.13;5082050;28;19946;-79
2022/07/31 06:10:28;;;;;;;;;;;;;;;-144.99;100.00;61100.13;5073746;28;19939;-77
2022/07/31 06:12:54;;;;;;;;;;;;;;;-144.99;100.00;61100.13;5073040;28;19932;-78
2022/07/31 06:15:21;;;;;;;;;;;;;;;-144.99;100.00;61100.13;5078226;28;20019;-76
2022/07/31 06:17:47;;;;;;;;;;;;;;;-144.99;100.00;61100.13;5077363;28;19934;-76
2022/07/31 06:20:14;;;;;;;;;;;;;;;-144.99;100.00;61100.13;5072177;28;20381;-76
2022/07/31 06:22:42;;;;;;;;;;;;;;;-144.99;100.00;61100.13;5082036;28;19964;-76
2022/07/31 06:25:09;;;;;;;;;;;;;;;-144.99;100.00;61100.13;5075882;28;19936;-75
2022/07/31 06:27:36;;;;;;;;;;;;;;;-144.99;100.00;61100.13;5081229;28;19924;-77
2022/07/31 06:30:04;;;;;;;;;;;;;;;-144.99;100.00;61100.13;5074853;28;19936;-76
2022/07/31 06:32:31;;;;;;;;;;;;;;;-144.99;100.00;61100.13;5069981;28;19948;-75
2022/07/31 06:34:57;;;;;;;;;;;;;;;-144.99;100.00;61100.13;5067064;28;19924;-76
2022/07/31 06:37:24;;;;;;;;;;;;;;;-144.99;100.00;61100.13;5078999;28;19946;-76
2022/07/31 06:39:52;;;;;;;;;;;;;;;-144.99;100.00;61100.13;5076379;28;19935;-75
2022/07/31 06:42:19;;;;;;;;;;;;;;;-144.99;100.00;61100.13;5081295;28;20476;-75
2022/07/31 06:44:45;;;;;;;;;;;;;;;-144.99;100.00;61100.13;5084160;28;19928;-76
2022/07/31 06:47:12;;;;;;;;;;;;;;;-144.99;100.00;61100.13;5089182;28;19971;-76
2022/07/31 06:49:38;;;;;;;;;;;;;;;-144.99;100.00;61100.13;5074031;28;20011;-75
2022/07/31 06:52:04;;;;;;;;;;;;;;;-144.99;100.00;61100.13;5067009;28;19972;-76
2022/07/31 06:54:31;;;;;;;;;;;;;;;-144.99;100.00;61100.13;5069394;28;19924;-77
2022/07/31 06:56:59;;;;;;;;;;;;;;;-144.99;100.00;61100.13;5078498;28;19928;-76
2022/07/31 06:59:25;;;;;;;;;;;;;;;-144.99;100.00;61100.13;5076597;28;19936;-80
2022/07/31 07:01:51;;;;;;;;;;;;;;;-144.99;100.00;61100.13;5067849;28;20013;-79
2022/07/31 07:04:18;;;;;;;;;;;;;;;-144.99;100.00;61100.13;5081784;28;20008;-79
2022/07/31 07:06:44;;;;;;;;;;;;;;;-144.99;100.00;61100.13;5076971;28;20030;-75
2022/07/31 07:09:11;;;;;;;;;;;;;;;-144.99;100.00;61100.13;5077393;28;19931;-78
2022/07/31 07:11:38;;;;;;;;;;;;;;;-144.99;100.00;61100.13;5068808;28;20015;-78
2022/07/31 07:14:05;;;;;;;;;;;;;;;-144.99;100.00;61100.13;5074402;28;20015;-79
2022/07/31 07:16:32;;;;;;;;;;;;;;;-144.99;100.00;61100.13;5076754;28;20320;-78
2022/07/31 07:18:58;;;;;;;;;;;;;;;-144.99;100.00;61100.13;5077212;28;19930;-78
2022/07/31 07:21:25;;;;;;;;;;;;;;;-144.99;100.00;61100.13;5076513;28;20010;-76
2022/07/31 07:23:51;;;;;;;;;;;;;;;-144.99;100.00;61100.13;5077924;28;19982;-78
2022/07/31 07:26:18;;;;;;;;;;;;;;;-144.99;100.00;61100.13;5078702;28;19963;-78
2022/07/31 07:28:45;;;;;;;;;;;;;;;-144.99;100.00;61100.13;5078358;28;19999;-79
2022/07/31 07:31:12;;;;;;;;;;;;;;;-144.99;100.00;61100.13;5077382;28;19925;-79
2022/07/31 07:33:39;;;;;;;;;;;;;;;-144.99;100.00;61100.13;5069269;28;19931;-79
2022/07/31 07:36:05;;;;;;;;;;;;;;;-144.99;100.00;61100.13;5074489;28;19928;-76
2022/07/31 07:38:32;;;;;;;;;;;;;;;-144.99;100.00;61100.13;5081267;28;20041;-78
2022/07/31 07:40:58;;;;;;;;;;;;;;;-144.99;100.00;61100.13;5076235;28;19929;-79
2022/07/31 07:43:25;;;;;;;;;;;;;;;-144.99;100.00;61100.13;5074054;28;19947;-81
2022/07/31 07:45:51;;;;;;;;;;;;;;;-144.99;100.00;61100.13;5064831;28;20257;-79
2022/07/31 07:48:19;;;;;;;;;;;;;;;-144.99;100.00;61100.13;5063476;28;20066;-79
2022/07/31 07:50:46;;;;;;;;;;;;;;;-144.99;100.00;61100.13;5066979;28;19928;-79
2022/07/31 07:53:12;;;;;;;;;;;;;;;-144.99;100.00;61100.13;5067941;28;19924;-79
2022/07/31 07:55:39;;;;;;;;;;;;;;;-144.99;100.00;61100.13;5078078;28;19932;-81
2022/07/31 07:58:05;;;;;;;;;;;;;;;-144.99;100.00;61100.13;5058308;28;19929;-78
2022/07/31 08:00:31;;;;;;;;;;;;;;;-144.99;100.00;61100.13;5057592;28;20395;-79
2022/07/31 08:02:58;;;;;;;;;;;;;;;-144.99;100.00;61100.13;5054206;28;19935;-80
2022/07/31 08:05:25;;;;;;;;;;;;;;;-144.99;100.00;61100.13;5058149;28;20306;-80
2022/07/31 08:07:52;;;;;;;;;;;;;;;-144.99;100.00;61100.13;5065286;28;19946;-80
2022/07/31 08:10:19;;;;;;;;;;;;;;;-144.99;100.00;61100.13;5072324;28;19928;-80
2022/07/31 08:12:45;;;;;;;;;;;;;;;-144.99;100.00;61100.13;5080606;28;19928;-80
2022/07/31 08:15:12;;;;;;;;;;;;;;;-144.99;100.00;61100.13;5074496;28;19928;-80
2022/07/31 08:17:38;;;;;;;;;;;;;;;-144.99;100.00;61100.13;5056153;28;19925;-81
2022/07/31 08:20:05;;;;;;;;;;;;;;;-144.99;100.00;61100.13;5051271;28;20140;-76
2022/07/31 08:22:33;;;;;;;;;;;;;;;-144.99;100.00;61100.13;5063671;28;19932;-79
2022/07/31 08:25:00;;;;;;;;;;;;;;;-144.99;100.00;61100.13;5058938;28;20314;-78
2022/07/31 08:27:27;;;;;;;;;;;;;;;-144.99;100.00;61100.13;5066791;28;20345;-76
2022/07/31 08:29:54;;;;;;;;;;;;;;;-144.99;100.00;61100.13;5065067;28;19928;-78
2022/07/31 08:32:20;;;;;;;;;;;;;;;-144.99;100.00;61100.13;5064657;28;19928;-77
2022/07/31 08:34:47;;;;;;;;;;;;;;;-144.99;100.00;61100.13;5060585;28;20007;-79
2022/07/31 08:37:13;;;;;;;;;;;;;;;-144.99;100.00;61100.13;5066270;28;20003;-81
2022/07/31 08:39:41;;;;;;;;;;;;;;;-144.99;100.00;61100.13;5072764;28;20182;-80
2022/07/31 08:42:08;;;;;;;;;;;;;;;-144.99;100.00;61100.13;5069992;28;20024;-81
2022/07/31 08:44:35;;;;;;;;;;;;;;;-144.99;100.00;61100.13;5066841;28;19990;-78
2022/07/31 08:47:02;;;;;;;;;;;;;;;-144.99;100.00;61100.13;5077317;28;19934;-81
2022/07/31 08:49:30;;;;;;;;;;;;;;;-144.99;100.00;61100.13;5065445;28;20046;-79
2022/07/31 08:51:58;;;;;;;;;;;;;;;-144.99;100.00;61100.13;5064304;28;20418;-80
2022/07/31 08:54:26;;;;;;;;;;;;;;;-144.99;100.00;61100.13;5061562;28;19995;-80
2022/07/31 08:56:53;;;;;;;;;;;;;;;-144.99;100.00;61100.13;5063119;28;19931;-79
2022/07/31 08:59:20;;;;;;;;;;;;;;;-144.99;100.00;61100.13;5057282;28;19935;-80
2022/07/31 09:01:47;;;;;;;;;;;;;;;-144.99;100.00;61100.13;5055724;28;20452;-79
2022/07/31 09:04:13;;;;;;;;;;;;;;;-144.99;100.00;61100.13;5067091;28;20323;-80
2022/07/31 09:06:40;;;;;;;;;;;;;;;-144.99;100.00;61100.13;5066320;28;19924;-82
2022/07/31 09:09:06;;;;;;;;;;;;;;;-144.99;100.00;61100.13;5048041;28;19932;-80
2022/07/31 09:11:33;;;;;;;;;;;;;;;-144.99;100.00;61100.13;5064662;28;20552;-81
2022/07/31 09:14:02;;;;;;;;;;;;;;;-144.99;100.00;61100.13;5070017;28;19932;-80
2022/07/31 09:16:29;;;;;;;;;;;;;;;-144.99;100.00;61100.13;5067495;28;19925;-82
2022/07/31 09:18:56;;;;;;;;;;;;;;;-144.99;100.00;61100.13;5067003;28;20332;-79
2022/07/31 09:21:24;;;;;;;;;;;;;;;-144.99;100.00;61100.13;5093742;22;19935;-76
2022/07/31 09:23:52;;;;;;;;;;;;;;;-144.99;100.00;61100.13;5072875;28;19935;-75
2022/07/31 09:26:19;;;;;;;;;;;;;;;-144.99;100.00;61100.13;5082099;28;19932;-74
2022/07/31 09:28:47;;;;;;;;;;;;;;;-144.99;100.00;61100.13;5086760;28;19928;-75
2022/07/31 09:31:15;;;;;;;;;;;;;;;-144.99;100.00;61100.13;5086509;28;19931;-76
2022/07/31 09:33:42;;;;;;;;;;;;;;;-144.99;100.00;61100.13;5053936;28;19928;-74
2022/07/31 09:36:09;;;;;;;;;;;;;;;-144.99;100.00;61100.13;5059680;28;20371;-76
2022/07/31 09:38:36;;;;;;;;;;;;;;;-144.99;100.00;61100.13;5056867;28;19954;-75
2022/07/31 09:41:10;;;;;;;;;;;;;;;-144.99;100.00;61100.13;5063181;28;20023;-76
2022/07/31 09:43:36;;;;;;;;;;;;;;;-144.99;100.00;61100.13;5066238;28;19928;-76
2022/07/31 09:46:04;;;;;;;;;;;;;;;-144.99;100.00;61100.13;5060577;28;20055;-77
2022/07/31 09:48:32;;;;;;;;;;;;;;;-144.99;100.00;61100.13;5058659;28;19935;-76
2022/07/31 09:50:59;;;;;;;;;;;;;;;-144.99;100.00;61100.13;5049999;28;20024;-76
2022/07/31 09:53:26;;;;;;;;;;;;;;;-144.99;100.00;61100.13;5056500;28;20012;-77
2022/07/31 09:55:53;;;;;;;;;;;;;;;-144.99;100.00;61100.13;5064896;28;20011;-76
2022/07/31 09:58:20;;;;;;;;;;;;;;;-144.99;100.00;61100.13;5053886;28;20503;-77
2022/07/31 10:00:47;;;;;;;;;;;;;;;-144.99;100.00;61100.13;5058326;28;20418;-77
2022/07/31 10:03:16;;;;;;;;;;;;;;;-144.99;100.00;61100.13;5055181;28;19958;-77
2022/07/31 10:05:45;;;;;;;;;;;;;;;-144.99;100.00;61100.13;5064717;28;20062;-76
2022/07/31 10:08:12;;;;;;;;;;;;;;;-144.99;100.00;61100.13;5064257;28;19938;-76
2022/07/31 10:10:39;;;;;;;;;;;;;;;-144.99;100.00;61100.13;5057801;28;19935;-76
2022/07/31 10:13:08;;;;;;;;;;;;;;;-144.99;100.00;61100.13;5062411;28;19929;-77
2022/07/31 10:15:37;;;;;;;;;;;;;;;-144.99;100.00;61100.13;5062422;28;19975;-77
2022/07/31 10:18:07;;;;;;;;;;;;;;;-144.99;100.00;61100.13;5061636;28;20027;-77
2022/07/31 10:20:34;;;;;;;;;;;;;;;-144.99;100.00;61100.13;5058509;28;20379;-78
2022/07/31 10:23:05;;;;;;;;;;;;;;;-144.99;100.00;61100.13;5059286;28;19931;-77
2022/07/31 10:25:34;;;;;;;;;;;;;;;-144.99;100.00;61100.13;5055788;28;19929;-76
2022/07/31 10:28:01;;;;;;;;;;;;;;;-144.99;100.00;61100.13;5061582;28;19940;-77
2022/07/31 10:30:27;;;;;;;;;;;;;;;-144.99;100.00;61100.13;5050128;28;19935;-77
2022/07/31 10:32:54;;;;;;;;;;;;;;;-144.99;100.00;61100.13;5052108;28;19928;-77
2022/07/31 10:35:21;;;;;;;;;;;;;;;-144.99;100.00;61100.13;5060846;28;20020;-76
2022/07/31 10:37:53;;;;;;;;;;;;;;;-144.99;100.00;61100.13;5064740;28;19981;-76
2022/07/31 10:40:25;;;;;;;;;;;;;;;-144.99;100.00;61100.13;5064569;28;19943;-77
2022/07/31 10:42:55;;;;;;;;;;;;;;;-144.99;100.00;61100.13;5068078;28;19959;-77
2022/07/31 10:45:22;;;;;;;;;;;;;;;-144.99;100.00;61100.13;5070637;28;19928;-77
2022/07/31 10:47:55;;;;;;;;;;;;;;;-144.99;100.00;61100.13;5060476;28;19935;-78
2022/07/31 10:50:22;;;;;;;;;;;;;;;-144.99;100.00;61100.13;5067071;28;20019;-78
2022/07/31 10:52:49;;;;;;;;;;;;;;;-144.99;100.00;61100.13;5062117;28;19929;-78
2022/07/31 10:55:16;;;;;;;;;;;;;;;-144.99;100.00;61100.13;5061066;28;19951;-76
2022/07/31 10:57:45;;;;;;;;;;;;;;;-144.99;100.00;61100.13;5064808;28;20486;-77
2022/07/31 11:00:12;;;;;;;;;;;;;;;-144.99;100.00;61100.13;5070556;28;19929;-78
2022/07/31 11:02:39;;;;;;;;;;;;;;;-144.99;100.00;61100.13;5048366;28;20039;-78
2022/07/31 11:05:06;;;;;;;;;;;;;;;-144.99;100.00;61100.13;5068510;28;19928;-78
2022/07/31 11:07:33;;;;;;;;;;;;;;;-144.99;100.00;61100.13;5061154;28;19932;-77
2022/07/31 11:10:07;;;;;;;;;;;;;;;-144.99;100.00;61100.13;5069887;28;20020;-75
2022/07/31 11:12:34;;;;;;;;;;;;;;;-144.99;100.00;61100.13;5063486;28;19924;-76
2022/07/31 11:15:01;;;;;;;;;;;;;;;-144.99;100.00;61100.13;5063733;28;19929;-77
2022/07/31 11:17:32;;;;;;;;;;;;;;;-144.99;100.00;61100.13;5061413;28;19929;-76
2022/07/31 11:19:58;;;;;;;;;;;;;;;-144.99;100.00;61100.13;5059660;28;19933;-75
2022/07/31 11:22:24;;;;;;;;;;;;;;;-144.99;100.00;61100.13;5063034;28;19932;-77
2022/07/31 11:24:54;;;;;;;;;;;;;;;-144.99;100.00;61100.13;5067028;28;20344;-76
2022/07/31 11:27:29;;;;;;;;;;;;;;;-144.99;100.00;61100.13;5068838;28;20359;-77
2022/07/31 11:30:03;;;;;;;;;;;;;;;-144.99;100.00;61100.13;5062783;28;19963;-76
2022/07/31 11:32:31;;;;;;;;;;;;;;;-144.99;100.00;61100.13;4011137;28;10001053;-77
2022/07/31 11:34:57;;;;;;;;;;;;;;;-144.99;100.00;61100.13;5055154;28;19934;-75
2022/07/31 11:37:25;;;;;;;;;;;;;;;-144.99;100.00;61100.13;5047517;28;19967;-77
2022/07/31 11:39:52;;;;;;;;;;;;;;;-144.99;100.00;61100.13;5062804;28;19987;-77
2022/07/31 11:42:19;;;;;;;;;;;;;;;-144.99;100.00;61100.13;5060767;28;20275;-77
2022/07/31 11:44:46;;;;;;;;;;;;;;;-144.99;100.00;61100.13;5056598;28;20586;-76
2022/07/31 11:47:12;;;;;;;;;;;;;;;-144.99;100.00;61100.13;5062422;28;19931;-77
2022/07/31 11:49:40;;;;;;;;;;;;;;;-144.99;100.00;61100.13;5061068;28;20007;-76
2022/07/31 11:52:08;;;;;;;;;;;;;;;-144.99;100.00;61100.13;5055568;28;19935;-77
2022/07/31 11:54:34;;;;;;;;;;;;;;;-144.99;100.00;61100.13;5054690;28;19976;-79
2022/07/31 11:57:01;;;;;;;;;;;;;;;-144.99;100.00;61100.13;5066901;28;19979;-78
2022/07/31 11:59:30;;;;;;;;;;;;;;;-144.99;100.00;61100.13;5060083;28;19935;-76
2022/07/31 12:02:02;;;;;;;;;;;;;;;-144.99;100.00;61100.13;5061362;28;20405;-78
2022/07/31 12:04:29;;;;;;;;;;;;;;;-144.99;100.00;61100.13;5056392;28;19935;-76
2022/07/31 12:06:57;;;;;;;;;;;;;;;-144.99;100.00;61100.13;5064811;28;19925;-77
2022/07/31 12:09:24;;;;;;;;;;;;;;;-144.99;100.00;61100.13;5066576;28;19928;-78
2022/07/31 12:11:50;;;;;;;;;;;;;;;-144.99;100.00;61100.13;5051409;28;19929;-77
2022/07/31 12:14:26;;;;;;;;;;;;;;;-144.99;100.00;61100.13;5056383;28;19955;-75
2022/07/31 12:16:53;;;;;;;;;;;;;;;-144.99;100.00;61100.13;5063515;28;20576;-75
2022/07/31 12:19:25;;;;;;;;;;;;;;;-144.99;100.00;61100.13;5054757;28;19932;-77